sensor_id;sensor_type;location;lat;lon;timestamp;P1;durP1;ratioP1;P2;durP2;ratioP2
11222;SDS011;5668;52.012;8.724;2024-03-02T00:01:37;7.87;;;7.07;;
11222;SDS011;5668;52.012;8.724;2024-03-02T00:04:05;7.90;;;7.10;;
11222;SDS011;5668;52.012;8.724;2024-03-02T00:06:34;8.03;;;7.23;;
11222;SDS011;5668;52.012;8.724;2024-03-02T00:09:02;7.80;;;7.10;;
11222;SDS011;5668;52.012;8.724;2024-03-02T00:11:29;7.63;;;6.80;;
11222;SDS011;5668;52.012;8.724;2024-03-02T00:14:00;7.47;;;6.77;;
11222;SDS011;5668;52.012;8.724;2024-03-02T00:16:29;7.60;;;6.60;;
11222;SDS011;5668;52.012;8.724;2024-03-02T00:19:02;6.63;;;5.77;;
11222;SDS011;5668;52.012;8.724;2024-03-02T00:21:30;7.63;;;6.90;;
11222;SDS011;5668;52.012;8.724;2024-03-02T00:23:58;7.53;;;6.83;;
11222;SDS011;5668;52.012;8.724;2024-03-02T00:26:26;7.27;;;6.57;;
11222;SDS011;5668;52.012;8.724;2024-03-02T00:28:53;7.47;;;6.70;;
11222;SDS011;5668;52.012;8.724;2024-03-02T00:31:22;7.03;;;6.10;;
11222;SDS011;5668;52.012;8.724;2024-03-02T00:33:50;7.73;;;6.97;;
11222;SDS011;5668;52.012;8.724;2024-03-02T00:36:22;6.90;;;6.20;;
11222;SDS011;5668;52.012;8.724;2024-03-02T00:38:52;7.23;;;6.50;;
11222;SDS011;5668;52.012;8.724;2024-03-02T00:41:21;7.07;;;6.47;;
11222;SDS011;5668;52.012;8.724;2024-03-02T00:43:59;7.27;;;6.33;;
11222;SDS011;5668;52.012;8.724;2024-03-02T00:46:29;7.17;;;6.47;;
11222;SDS011;5668;52.012;8.724;2024-03-02T00:48:59;7.23;;;6.53;;
11222;SDS011;5668;52.012;8.724;2024-03-02T00:51:29;7.37;;;6.67;;
11222;SDS011;5668;52.012;8.724;2024-03-02T00:53:58;7.40;;;6.70;;
11222;SDS011;5668;52.012;8.724;2024-03-02T00:56:26;7.77;;;6.97;;
11222;SDS011;5668;52.012;8.724;2024-03-02T00:58:53;7.60;;;6.80;;
11222;SDS011;5668;52.012;8.724;2024-03-02T01:01:21;7.37;;;6.50;;
11222;SDS011;5668;52.012;8.724;2024-03-02T01:03:48;7.67;;;6.90;;
11222;SDS011;5668;52.012;8.724;2024-03-02T01:06:16;7.50;;;6.57;;
11222;SDS011;5668;52.012;8.724;2024-03-02T01:08:45;7.07;;;6.17;;
11222;SDS011;5668;52.012;8.724;2024-03-02T01:11:16;7.03;;;6.37;;
11222;SDS011;5668;52.012;8.724;2024-03-02T01:13:43;7.60;;;6.80;;
11222;SDS011;5668;52.012;8.724;2024-03-02T01:16:11;8.27;;;7.27;;
11222;SDS011;5668;52.012;8.724;2024-03-02T01:18:38;7.63;;;6.93;;
11222;SDS011;5668;52.012;8.724;2024-03-02T01:21:05;8.27;;;7.47;;
11222;SDS011;5668;52.012;8.724;2024-03-02T01:23:33;8.00;;;7.20;;
11222;SDS011;5668;52.012;8.724;2024-03-02T01:26:01;7.30;;;6.53;;
11222;SDS011;5668;52.012;8.724;2024-03-02T01:28:29;7.37;;;6.63;;
11222;SDS011;5668;52.012;8.724;2024-03-02T01:30:56;7.27;;;6.57;;
11222;SDS011;5668;52.012;8.724;2024-03-02T01:33:23;8.00;;;6.83;;
11222;SDS011;5668;52.012;8.724;2024-03-02T01:35:50;8.00;;;7.20;;
11222;SDS011;5668;52.012;8.724;2024-03-02T01:38:17;7.10;;;6.43;;
11222;SDS011;5668;52.012;8.724;2024-03-02T01:40:45;7.53;;;6.53;;
11222;SDS011;5668;52.012;8.724;2024-03-02T01:43:14;7.40;;;6.70;;
11222;SDS011;5668;52.012;8.724;2024-03-02T01:45:41;7.20;;;6.50;;
11222;SDS011;5668;52.012;8.724;2024-03-02T01:48:08;7.67;;;6.87;;
11222;SDS011;5668;52.012;8.724;2024-03-02T01:50:35;6.80;;;6.10;;
11222;SDS011;5668;52.012;8.724;2024-03-02T01:53:03;7.43;;;6.73;;
11222;SDS011;5668;52.012;8.724;2024-03-02T01:55:30;7.37;;;6.50;;
11222;SDS011;5668;52.012;8.724;2024-03-02T01:57:59;7.60;;;6.87;;
11222;SDS011;5668;52.012;8.724;2024-03-02T02:00:28;8.13;;;7.10;;
11222;SDS011;5668;52.012;8.724;2024-03-02T02:02:57;8.07;;;7.30;;
11222;SDS011;5668;52.012;8.724;2024-03-02T02:05:24;7.97;;;7.27;;
11222;SDS011;5668;52.012;8.724;2024-03-02T02:07:52;8.90;;;8.00;;
11222;SDS011;5668;52.012;8.724;2024-03-02T02:10:19;8.23;;;7.43;;
11222;SDS011;5668;52.012;8.724;2024-03-02T02:12:47;8.57;;;7.67;;
11222;SDS011;5668;52.012;8.724;2024-03-02T02:15:24;8.07;;;7.30;;
11222;SDS011;5668;52.012;8.724;2024-03-02T02:17:53;8.13;;;7.33;;
11222;SDS011;5668;52.012;8.724;2024-03-02T02:20:21;8.27;;;7.47;;
11222;SDS011;5668;52.012;8.724;2024-03-02T02:22:55;8.40;;;7.60;;
11222;SDS011;5668;52.012;8.724;2024-03-02T02:25:23;8.90;;;8.00;;
11222;SDS011;5668;52.012;8.724;2024-03-02T02:27:50;8.87;;;8.00;;
11222;SDS011;5668;52.012;8.724;2024-03-02T02:30:20;9.03;;;8.10;;
11222;SDS011;5668;52.012;8.724;2024-03-02T02:32:49;8.80;;;8.00;;
11222;SDS011;5668;52.012;8.724;2024-03-02T02:35:16;8.67;;;7.87;;
11222;SDS011;5668;52.012;8.724;2024-03-02T02:37:43;9.40;;;8.50;;
11222;SDS011;5668;52.012;8.724;2024-03-02T02:40:14;8.77;;;7.87;;
11222;SDS011;5668;52.012;8.724;2024-03-02T02:42:43;9.37;;;8.47;;
11222;SDS011;5668;52.012;8.724;2024-03-02T02:45:11;8.57;;;7.77;;
11222;SDS011;5668;52.012;8.724;2024-03-02T02:47:39;10.03;;;8.57;;
11222;SDS011;5668;52.012;8.724;2024-03-02T02:50:07;8.80;;;8.00;;
11222;SDS011;5668;52.012;8.724;2024-03-02T02:52:37;9.27;;;8.37;;
11222;SDS011;5668;52.012;8.724;2024-03-02T02:55:06;10.60;;;8.70;;
11222;SDS011;5668;52.012;8.724;2024-03-02T02:57:36;11.37;;;9.57;;
11222;SDS011;5668;52.012;8.724;2024-03-02T03:05:11;10.27;;;9.07;;
11222;SDS011;5668;52.012;8.724;2024-03-02T03:07:39;9.10;;;8.20;;
11222;SDS011;5668;52.012;8.724;2024-03-02T03:10:09;9.67;;;8.67;;
11222;SDS011;5668;52.012;8.724;2024-03-02T03:12:39;9.93;;;8.90;;
11222;SDS011;5668;52.012;8.724;2024-03-02T03:15:08;9.40;;;8.40;;
11222;SDS011;5668;52.012;8.724;2024-03-02T03:17:36;9.63;;;8.67;;
11222;SDS011;5668;52.012;8.724;2024-03-02T03:20:04;10.63;;;9.53;;
11222;SDS011;5668;52.012;8.724;2024-03-02T03:22:34;10.70;;;9.60;;
11222;SDS011;5668;52.012;8.724;2024-03-02T03:25:05;11.43;;;10.00;;
11222;SDS011;5668;52.012;8.724;2024-03-02T03:27:33;10.40;;;9.37;;
11222;SDS011;5668;52.012;8.724;2024-03-02T03:30:00;11.23;;;10.13;;
11222;SDS011;5668;52.012;8.724;2024-03-02T03:32:28;11.80;;;10.60;;
11222;SDS011;5668;52.012;8.724;2024-03-02T03:34:55;12.40;;;11.10;;
11222;SDS011;5668;52.012;8.724;2024-03-02T03:37:22;12.23;;;10.93;;
11222;SDS011;5668;52.012;8.724;2024-03-02T03:39:51;12.93;;;10.47;;
11222;SDS011;5668;52.012;8.724;2024-03-02T03:42:19;14.40;;;11.63;;
11222;SDS011;5668;52.012;8.724;2024-03-02T03:44:46;12.73;;;10.97;;
11222;SDS011;5668;52.012;8.724;2024-03-02T03:47:14;11.47;;;10.27;;
11222;SDS011;5668;52.012;8.724;2024-03-02T03:49:41;11.43;;;10.23;;
11222;SDS011;5668;52.012;8.724;2024-03-02T03:52:09;12.63;;;11.30;;
11222;SDS011;5668;52.012;8.724;2024-03-02T03:54:36;11.83;;;10.63;;
11222;SDS011;5668;52.012;8.724;2024-03-02T03:57:04;12.00;;;10.80;;
11222;SDS011;5668;52.012;8.724;2024-03-02T03:59:31;11.20;;;10.10;;
11222;SDS011;5668;52.012;8.724;2024-03-02T04:01:59;12.30;;;11.03;;
11222;SDS011;5668;52.012;8.724;2024-03-02T04:04:27;11.30;;;10.10;;
11222;SDS011;5668;52.012;8.724;2024-03-02T04:06:55;11.93;;;10.73;;
11222;SDS011;5668;52.012;8.724;2024-03-02T04:09:22;12.10;;;10.90;;
11222;SDS011;5668;52.012;8.724;2024-03-02T04:11:50;13.70;;;11.03;;
11222;SDS011;5668;52.012;8.724;2024-03-02T04:14:17;11.33;;;10.23;;
11222;SDS011;5668;52.012;8.724;2024-03-02T04:16:45;12.03;;;10.83;;
11222;SDS011;5668;52.012;8.724;2024-03-02T04:19:12;11.33;;;10.27;;
11222;SDS011;5668;52.012;8.724;2024-03-02T04:21:40;12.03;;;10.80;;
11222;SDS011;5668;52.012;8.724;2024-03-02T04:24:07;11.73;;;10.53;;
11222;SDS011;5668;52.012;8.724;2024-03-02T04:26:35;11.77;;;9.93;;
11222;SDS011;5668;52.012;8.724;2024-03-02T04:29:02;12.07;;;10.80;;
11222;SDS011;5668;52.012;8.724;2024-03-02T04:31:29;13.17;;;11.20;;
11222;SDS011;5668;52.012;8.724;2024-03-02T04:33:56;12.17;;;10.97;;
11222;SDS011;5668;52.012;8.724;2024-03-02T04:36:23;13.43;;;11.77;;
11222;SDS011;5668;52.012;8.724;2024-03-02T04:38:52;13.83;;;11.83;;
11222;SDS011;5668;52.012;8.724;2024-03-02T04:41:19;13.17;;;11.87;;
11222;SDS011;5668;52.012;8.724;2024-03-02T04:43:46;13.27;;;11.87;;
11222;SDS011;5668;52.012;8.724;2024-03-02T04:46:13;12.77;;;11.37;;
11222;SDS011;5668;52.012;8.724;2024-03-02T04:48:41;12.20;;;10.93;;
11222;SDS011;5668;52.012;8.724;2024-03-02T04:51:08;12.53;;;11.20;;
11222;SDS011;5668;52.012;8.724;2024-03-02T04:53:36;13.60;;;12.10;;
11222;SDS011;5668;52.012;8.724;2024-03-02T04:56:05;14.10;;;11.97;;
11222;SDS011;5668;52.012;8.724;2024-03-02T04:59:05;13.53;;;11.80;;
11222;SDS011;5668;52.012;8.724;2024-03-02T05:01:32;13.00;;;11.50;;
11222;SDS011;5668;52.012;8.724;2024-03-02T05:03:59;12.83;;;11.40;;
11222;SDS011;5668;52.012;8.724;2024-03-02T05:06:27;13.40;;;11.73;;
11222;SDS011;5668;52.012;8.724;2024-03-02T05:08:55;13.13;;;11.73;;
11222;SDS011;5668;52.012;8.724;2024-03-02T05:11:23;13.13;;;11.73;;
11222;SDS011;5668;52.012;8.724;2024-03-02T05:14:18;13.47;;;11.40;;
11222;SDS011;5668;52.012;8.724;2024-03-02T05:16:45;14.43;;;11.57;;
11222;SDS011;5668;52.012;8.724;2024-03-02T05:19:12;13.00;;;11.60;;
11222;SDS011;5668;52.012;8.724;2024-03-02T05:21:39;12.60;;;11.30;;
11222;SDS011;5668;52.012;8.724;2024-03-02T05:24:07;12.73;;;10.77;;
11222;SDS011;5668;52.012;8.724;2024-03-02T05:26:35;12.53;;;11.20;;
11222;SDS011;5668;52.012;8.724;2024-03-02T05:29:02;13.43;;;11.50;;
11222;SDS011;5668;52.012;8.724;2024-03-02T05:31:30;12.57;;;11.27;;
11222;SDS011;5668;52.012;8.724;2024-03-02T05:33:57;12.30;;;11.00;;
11222;SDS011;5668;52.012;8.724;2024-03-02T05:36:24;12.73;;;11.43;;
11222;SDS011;5668;52.012;8.724;2024-03-02T05:38:51;13.37;;;11.70;;
11222;SDS011;5668;52.012;8.724;2024-03-02T05:41:18;18.93;;;11.43;;
11222;SDS011;5668;52.012;8.724;2024-03-02T05:43:47;12.27;;;10.97;;
11222;SDS011;5668;52.012;8.724;2024-03-02T05:46:14;14.10;;;11.77;;
11222;SDS011;5668;52.012;8.724;2024-03-02T05:48:41;13.70;;;12.17;;
11222;SDS011;5668;52.012;8.724;2024-03-02T05:51:09;13.63;;;11.80;;
11222;SDS011;5668;52.012;8.724;2024-03-02T05:53:36;13.07;;;11.67;;
11222;SDS011;5668;52.012;8.724;2024-03-02T05:56:04;14.97;;;11.97;;
11222;SDS011;5668;52.012;8.724;2024-03-02T05:58:31;13.27;;;11.87;;
11222;SDS011;5668;52.012;8.724;2024-03-02T06:01:12;13.50;;;12.10;;
11222;SDS011;5668;52.012;8.724;2024-03-02T06:03:39;12.93;;;11.60;;
11222;SDS011;5668;52.012;8.724;2024-03-02T06:06:07;14.57;;;12.00;;
11222;SDS011;5668;52.012;8.724;2024-03-02T06:08:34;13.97;;;11.03;;
11222;SDS011;5668;52.012;8.724;2024-03-02T06:11:01;14.53;;;12.33;;
11222;SDS011;5668;52.012;8.724;2024-03-02T06:13:28;13.63;;;11.13;;
11222;SDS011;5668;52.012;8.724;2024-03-02T06:15:56;14.03;;;11.77;;
11222;SDS011;5668;52.012;8.724;2024-03-02T06:18:24;14.20;;;11.50;;
11222;SDS011;5668;52.012;8.724;2024-03-02T06:20:52;12.93;;;11.63;;
11222;SDS011;5668;52.012;8.724;2024-03-02T06:23:20;14.60;;;12.63;;
11222;SDS011;5668;52.012;8.724;2024-03-02T06:25:47;14.20;;;12.00;;
11222;SDS011;5668;52.012;8.724;2024-03-02T06:28:14;12.90;;;11.57;;
11222;SDS011;5668;52.012;8.724;2024-03-02T06:30:41;13.70;;;12.17;;
11222;SDS011;5668;52.012;8.724;2024-03-02T06:33:09;14.00;;;12.37;;
11222;SDS011;5668;52.012;8.724;2024-03-02T06:35:37;15.30;;;12.63;;
11222;SDS011;5668;52.012;8.724;2024-03-02T06:38:05;14.87;;;12.37;;
11222;SDS011;5668;52.012;8.724;2024-03-02T06:40:32;15.90;;;13.47;;
11222;SDS011;5668;52.012;8.724;2024-03-02T06:42:59;16.30;;;12.97;;
11222;SDS011;5668;52.012;8.724;2024-03-02T06:45:27;15.67;;;13.43;;
11222;SDS011;5668;52.012;8.724;2024-03-02T06:47:55;15.37;;;13.00;;
11222;SDS011;5668;52.012;8.724;2024-03-02T06:50:23;14.33;;;12.63;;
11222;SDS011;5668;52.012;8.724;2024-03-02T06:52:51;15.57;;;12.57;;
11222;SDS011;5668;52.012;8.724;2024-03-02T06:55:18;14.63;;;13.03;;
11222;SDS011;5668;52.012;8.724;2024-03-02T06:57:46;14.53;;;12.37;;
11222;SDS011;5668;52.012;8.724;2024-03-02T07:00:13;15.50;;;13.57;;
11222;SDS011;5668;52.012;8.724;2024-03-02T07:02:42;14.17;;;12.00;;
11222;SDS011;5668;52.012;8.724;2024-03-02T07:05:10;15.63;;;13.50;;
11222;SDS011;5668;52.012;8.724;2024-03-02T07:07:37;17.47;;;13.37;;
11222;SDS011;5668;52.012;8.724;2024-03-02T07:10:07;16.33;;;12.87;;
11222;SDS011;5668;52.012;8.724;2024-03-02T07:12:34;15.77;;;12.83;;
11222;SDS011;5668;52.012;8.724;2024-03-02T07:15:02;14.93;;;13.33;;
11222;SDS011;5668;52.012;8.724;2024-03-02T07:17:54;16.50;;;13.33;;
11222;SDS011;5668;52.012;8.724;2024-03-02T07:20:21;14.63;;;12.73;;
11222;SDS011;5668;52.012;8.724;2024-03-02T07:22:48;16.20;;;13.80;;
11222;SDS011;5668;52.012;8.724;2024-03-02T07:25:17;14.30;;;12.57;;
11222;SDS011;5668;52.012;8.724;2024-03-02T07:27:44;14.70;;;12.73;;
11222;SDS011;5668;52.012;8.724;2024-03-02T07:30:13;14.10;;;12.27;;
11222;SDS011;5668;52.012;8.724;2024-03-02T07:32:42;15.50;;;12.30;;
11222;SDS011;5668;52.012;8.724;2024-03-02T07:35:11;14.33;;;12.43;;
11222;SDS011;5668;52.012;8.724;2024-03-02T07:37:39;14.47;;;12.80;;
11222;SDS011;5668;52.012;8.724;2024-03-02T07:40:08;15.27;;;12.37;;
11222;SDS011;5668;52.012;8.724;2024-03-02T07:42:39;15.13;;;12.03;;
11222;SDS011;5668;52.012;8.724;2024-03-02T07:45:06;14.23;;;12.07;;
11222;SDS011;5668;52.012;8.724;2024-03-02T07:47:34;14.73;;;12.40;;
11222;SDS011;5668;52.012;8.724;2024-03-02T07:50:02;15.60;;;13.00;;
11222;SDS011;5668;52.012;8.724;2024-03-02T07:52:31;14.80;;;12.53;;
11222;SDS011;5668;52.012;8.724;2024-03-02T07:54:59;14.87;;;12.77;;
11222;SDS011;5668;52.012;8.724;2024-03-02T07:57:26;15.77;;;12.47;;
11222;SDS011;5668;52.012;8.724;2024-03-02T07:59:54;15.03;;;12.70;;
11222;SDS011;5668;52.012;8.724;2024-03-02T08:02:24;15.40;;;12.17;;
11222;SDS011;5668;52.012;8.724;2024-03-02T08:04:51;15.93;;;12.90;;
11222;SDS011;5668;52.012;8.724;2024-03-02T08:07:18;14.70;;;12.30;;
11222;SDS011;5668;52.012;8.724;2024-03-02T08:09:46;15.60;;;12.80;;
11222;SDS011;5668;52.012;8.724;2024-03-02T08:12:13;15.03;;;12.93;;
11222;SDS011;5668;52.012;8.724;2024-03-02T08:14:40;14.87;;;13.07;;
11222;SDS011;5668;52.012;8.724;2024-03-02T08:17:08;14.90;;;12.73;;
11222;SDS011;5668;52.012;8.724;2024-03-02T08:19:36;16.17;;;12.50;;
11222;SDS011;5668;52.012;8.724;2024-03-02T08:22:03;13.73;;;12.00;;
11222;SDS011;5668;52.012;8.724;2024-03-02T08:24:31;16.20;;;13.13;;
11222;SDS011;5668;52.012;8.724;2024-03-02T08:26:59;15.43;;;12.83;;
11222;SDS011;5668;52.012;8.724;2024-03-02T08:29:26;16.07;;;13.17;;
11222;SDS011;5668;52.012;8.724;2024-03-02T08:31:54;17.07;;;13.07;;
11222;SDS011;5668;52.012;8.724;2024-03-02T08:34:22;15.73;;;13.10;;
11222;SDS011;5668;52.012;8.724;2024-03-02T08:36:50;14.90;;;12.37;;
11222;SDS011;5668;52.012;8.724;2024-03-02T08:39:17;16.93;;;12.13;;
11222;SDS011;5668;52.012;8.724;2024-03-02T08:41:45;15.53;;;12.20;;
11222;SDS011;5668;52.012;8.724;2024-03-02T08:44:13;17.17;;;12.33;;
11222;SDS011;5668;52.012;8.724;2024-03-02T08:46:41;16.50;;;12.37;;
11222;SDS011;5668;52.012;8.724;2024-03-02T08:49:08;13.97;;;11.50;;
11222;SDS011;5668;52.012;8.724;2024-03-02T08:51:37;13.70;;;11.67;;
11222;SDS011;5668;52.012;8.724;2024-03-02T08:54:04;13.13;;;10.97;;
11222;SDS011;5668;52.012;8.724;2024-03-02T08:56:32;12.87;;;11.40;;
11222;SDS011;5668;52.012;8.724;2024-03-02T08:58:59;12.87;;;11.27;;
11222;SDS011;5668;52.012;8.724;2024-03-02T09:01:26;14.13;;;11.27;;
11222;SDS011;5668;52.012;8.724;2024-03-02T09:03:53;15.50;;;11.67;;
11222;SDS011;5668;52.012;8.724;2024-03-02T09:06:21;14.70;;;11.40;;
11222;SDS011;5668;52.012;8.724;2024-03-02T09:08:49;13.63;;;11.47;;
11222;SDS011;5668;52.012;8.724;2024-03-02T09:11:17;12.17;;;9.43;;
11222;SDS011;5668;52.012;8.724;2024-03-02T09:13:44;8.90;;;7.60;;
11222;SDS011;5668;52.012;8.724;2024-03-02T09:16:11;8.60;;;7.03;;
11222;SDS011;5668;52.012;8.724;2024-03-02T09:18:38;9.90;;;7.57;;
11222;SDS011;5668;52.012;8.724;2024-03-02T09:21:06;11.00;;;9.07;;
11222;SDS011;5668;52.012;8.724;2024-03-02T09:23:33;9.20;;;8.20;;
11222;SDS011;5668;52.012;8.724;2024-03-02T09:26:01;8.50;;;7.50;;
11222;SDS011;5668;52.012;8.724;2024-03-02T09:28:29;8.67;;;7.27;;
11222;SDS011;5668;52.012;8.724;2024-03-02T09:30:56;9.57;;;6.90;;
11222;SDS011;5668;52.012;8.724;2024-03-02T09:33:23;9.50;;;7.40;;
11222;SDS011;5668;52.012;8.724;2024-03-02T09:35:50;10.50;;;8.57;;
11222;SDS011;5668;52.012;8.724;2024-03-02T09:38:18;11.07;;;9.00;;
11222;SDS011;5668;52.012;8.724;2024-03-02T09:40:45;11.00;;;9.00;;
11222;SDS011;5668;52.012;8.724;2024-03-02T09:43:13;10.90;;;8.77;;
11222;SDS011;5668;52.012;8.724;2024-03-02T09:45:41;9.03;;;8.13;;
11222;SDS011;5668;52.012;8.724;2024-03-02T09:48:08;9.47;;;8.47;;
11222;SDS011;5668;52.012;8.724;2024-03-02T09:50:36;12.53;;;9.20;;
11222;SDS011;5668;52.012;8.724;2024-03-02T09:53:03;8.80;;;7.90;;
11222;SDS011;5668;52.012;8.724;2024-03-02T09:55:32;7.30;;;6.37;;
11222;SDS011;5668;52.012;8.724;2024-03-02T09:58:00;7.30;;;5.93;;
11222;SDS011;5668;52.012;8.724;2024-03-02T10:00:28;8.20;;;6.57;;
11222;SDS011;5668;52.012;8.724;2024-03-02T10:02:55;8.20;;;6.63;;
11222;SDS011;5668;52.012;8.724;2024-03-02T10:05:24;8.03;;;6.40;;
11222;SDS011;5668;52.012;8.724;2024-03-02T10:07:58;8.07;;;5.77;;
11222;SDS011;5668;52.012;8.724;2024-03-02T10:10:34;8.07;;;6.53;;
11222;SDS011;5668;52.012;8.724;2024-03-02T10:13:05;7.50;;;6.43;;
11222;SDS011;5668;52.012;8.724;2024-03-02T10:15:35;7.10;;;6.40;;
11222;SDS011;5668;52.012;8.724;2024-03-02T10:18:03;7.63;;;6.83;;
11222;SDS011;5668;52.012;8.724;2024-03-02T10:20:31;8.13;;;7.33;;
11222;SDS011;5668;52.012;8.724;2024-03-02T10:23:09;9.27;;;7.10;;
11222;SDS011;5668;52.012;8.724;2024-03-02T10:25:37;7.37;;;6.67;;
11222;SDS011;5668;52.012;8.724;2024-03-02T10:28:05;8.37;;;6.20;;
11222;SDS011;5668;52.012;8.724;2024-03-02T10:30:32;7.53;;;6.53;;
11222;SDS011;5668;52.012;8.724;2024-03-02T10:33:01;9.43;;;7.10;;
11222;SDS011;5668;52.012;8.724;2024-03-02T10:35:29;7.50;;;6.23;;
11222;SDS011;5668;52.012;8.724;2024-03-02T10:38:01;7.13;;;5.80;;
11222;SDS011;5668;52.012;8.724;2024-03-02T10:40:31;6.13;;;5.53;;
11222;SDS011;5668;52.012;8.724;2024-03-02T10:42:58;7.87;;;5.83;;
11222;SDS011;5668;52.012;8.724;2024-03-02T10:45:27;7.20;;;5.90;;
11222;SDS011;5668;52.012;8.724;2024-03-02T10:47:56;7.40;;;6.47;;
11222;SDS011;5668;52.012;8.724;2024-03-02T10:50:26;6.50;;;5.70;;
11222;SDS011;5668;52.012;8.724;2024-03-02T10:52:53;7.10;;;6.10;;
11222;SDS011;5668;52.012;8.724;2024-03-02T10:55:21;6.87;;;6.10;;
11222;SDS011;5668;52.012;8.724;2024-03-02T10:57:50;9.18;;;6.20;;
11222;SDS011;5668;52.012;8.724;2024-03-02T11:00:18;6.13;;;5.53;;
11222;SDS011;5668;52.012;8.724;2024-03-02T11:02:50;7.95;;;6.03;;
11222;SDS011;5668;52.012;8.724;2024-03-02T11:05:26;6.00;;;5.25;;
11222;SDS011;5668;52.012;8.724;2024-03-02T11:07:56;6.20;;;5.45;;
11222;SDS011;5668;52.012;8.724;2024-03-02T11:10:28;6.03;;;5.30;;
11222;SDS011;5668;52.012;8.724;2024-03-02T11:13:02;6.88;;;5.40;;
11222;SDS011;5668;52.012;8.724;2024-03-02T11:15:31;5.57;;;5.00;;
11222;SDS011;5668;52.012;8.724;2024-03-02T11:18:03;6.90;;;5.68;;
11222;SDS011;5668;52.012;8.724;2024-03-02T11:20:35;6.10;;;5.50;;
11222;SDS011;5668;52.012;8.724;2024-03-02T11:23:04;6.30;;;5.70;;
11222;SDS011;5668;52.012;8.724;2024-03-02T11:25:33;5.82;;;5.22;;
11222;SDS011;5668;52.012;8.724;2024-03-02T11:28:01;7.65;;;5.45;;
11222;SDS011;5668;52.012;8.724;2024-03-02T11:33:16;6.05;;;4.95;;
11222;SDS011;5668;52.012;8.724;2024-03-02T11:35:53;6.75;;;5.10;;
11222;SDS011;5668;52.012;8.724;2024-03-02T11:38:23;5.00;;;4.50;;
11222;SDS011;5668;52.012;8.724;2024-03-02T11:40:56;5.93;;;5.10;;
11222;SDS011;5668;52.012;8.724;2024-03-02T11:43:25;6.13;;;5.43;;
11222;SDS011;5668;52.012;8.724;2024-03-02T11:45:57;6.03;;;5.13;;
11222;SDS011;5668;52.012;8.724;2024-03-02T11:48:29;6.07;;;4.90;;
11222;SDS011;5668;52.012;8.724;2024-03-02T11:50:59;5.43;;;4.53;;
11222;SDS011;5668;52.012;8.724;2024-03-02T11:53:27;5.70;;;4.45;;
11222;SDS011;5668;52.012;8.724;2024-03-02T11:55:57;5.05;;;4.55;;
11222;SDS011;5668;52.012;8.724;2024-03-02T11:58:26;5.07;;;4.35;;
11222;SDS011;5668;52.012;8.724;2024-03-02T12:00:54;5.35;;;4.10;;
11222;SDS011;5668;52.012;8.724;2024-03-02T12:03:23;4.75;;;4.25;;
11222;SDS011;5668;52.012;8.724;2024-03-02T12:05:52;4.32;;;3.92;;
11222;SDS011;5668;52.012;8.724;2024-03-02T12:08:21;4.97;;;4.55;;
11222;SDS011;5668;52.012;8.724;2024-03-02T12:10:55;5.40;;;4.25;;
11222;SDS011;5668;52.012;8.724;2024-03-02T12:13:24;4.70;;;4.30;;
11222;SDS011;5668;52.012;8.724;2024-03-02T12:15:53;4.50;;;3.90;;
11222;SDS011;5668;52.012;8.724;2024-03-02T12:18:21;4.50;;;4.10;;
11222;SDS011;5668;52.012;8.724;2024-03-02T12:20:49;6.50;;;5.18;;
11222;SDS011;5668;52.012;8.724;2024-03-02T12:23:22;4.35;;;3.95;;
11222;SDS011;5668;52.012;8.724;2024-03-02T12:25:50;4.63;;;4.13;;
11222;SDS011;5668;52.012;8.724;2024-03-02T12:28:17;4.57;;;3.80;;
11222;SDS011;5668;52.012;8.724;2024-03-02T12:30:45;4.90;;;3.75;;
11222;SDS011;5668;52.012;8.724;2024-03-02T12:33:13;3.97;;;3.60;;
11222;SDS011;5668;52.012;8.724;2024-03-02T12:35:41;4.60;;;3.65;;
11222;SDS011;5668;52.012;8.724;2024-03-02T12:38:08;4.78;;;3.55;;
11222;SDS011;5668;52.012;8.724;2024-03-02T12:40:38;4.78;;;4.00;;
11222;SDS011;5668;52.012;8.724;2024-03-02T12:43:05;4.40;;;3.67;;
11222;SDS011;5668;52.012;8.724;2024-03-02T12:45:33;4.07;;;3.60;;
11222;SDS011;5668;52.012;8.724;2024-03-02T12:48:00;4.35;;;3.42;;
11222;SDS011;5668;52.012;8.724;2024-03-02T12:50:28;4.97;;;3.85;;
11222;SDS011;5668;52.012;8.724;2024-03-02T12:52:55;3.45;;;3.03;;
11222;SDS011;5668;52.012;8.724;2024-03-02T12:55:23;5.13;;;3.05;;
11222;SDS011;5668;52.012;8.724;2024-03-02T12:57:52;3.72;;;2.90;;
11222;SDS011;5668;52.012;8.724;2024-03-02T13:00:20;3.72;;;3.13;;
11222;SDS011;5668;52.012;8.724;2024-03-02T13:02:48;4.20;;;3.33;;
11222;SDS011;5668;52.012;8.724;2024-03-02T13:05:16;3.58;;;3.00;;
11222;SDS011;5668;52.012;8.724;2024-03-02T13:07:43;3.53;;;2.80;;
11222;SDS011;5668;52.012;8.724;2024-03-02T13:10:13;2.88;;;2.67;;
11222;SDS011;5668;52.012;8.724;2024-03-02T13:12:41;3.10;;;2.80;;
11222;SDS011;5668;52.012;8.724;2024-03-02T13:15:10;3.03;;;2.72;;
11222;SDS011;5668;52.012;8.724;2024-03-02T13:17:37;3.38;;;3.08;;
11222;SDS011;5668;52.012;8.724;2024-03-02T13:20:06;3.13;;;2.83;;
11222;SDS011;5668;52.012;8.724;2024-03-02T13:22:35;3.20;;;2.72;;
11222;SDS011;5668;52.012;8.724;2024-03-02T13:25:03;2.78;;;2.28;;
11222;SDS011;5668;52.012;8.724;2024-03-02T13:27:33;2.55;;;2.25;;
11222;SDS011;5668;52.012;8.724;2024-03-02T13:30:01;2.92;;;2.42;;
11222;SDS011;5668;52.012;8.724;2024-03-02T13:32:32;3.85;;;2.67;;
11222;SDS011;5668;52.012;8.724;2024-03-02T13:34:59;2.83;;;2.63;;
11222;SDS011;5668;52.012;8.724;2024-03-02T13:37:28;2.95;;;2.55;;
11222;SDS011;5668;52.012;8.724;2024-03-02T13:39:55;3.35;;;2.50;;
11222;SDS011;5668;52.012;8.724;2024-03-02T13:42:22;2.60;;;2.40;;
11222;SDS011;5668;52.012;8.724;2024-03-02T13:44:49;2.55;;;2.35;;
11222;SDS011;5668;52.012;8.724;2024-03-02T13:47:17;2.97;;;2.33;;
11222;SDS011;5668;52.012;8.724;2024-03-02T13:49:47;2.50;;;2.08;;
11222;SDS011;5668;52.012;8.724;2024-03-02T13:52:14;2.50;;;2.25;;
11222;SDS011;5668;52.012;8.724;2024-03-02T13:54:43;2.60;;;2.15;;
11222;SDS011;5668;52.012;8.724;2024-03-02T13:57:11;2.15;;;1.95;;
11222;SDS011;5668;52.012;8.724;2024-03-02T13:59:39;2.17;;;1.52;;
11222;SDS011;5668;52.012;8.724;2024-03-02T14:02:08;2.67;;;1.88;;
11222;SDS011;5668;52.012;8.724;2024-03-02T14:04:36;2.40;;;1.88;;
11222;SDS011;5668;52.012;8.724;2024-03-02T14:07:05;2.70;;;1.90;;
11222;SDS011;5668;52.012;8.724;2024-03-02T14:09:33;2.95;;;2.00;;
11222;SDS011;5668;52.012;8.724;2024-03-02T14:12:00;2.40;;;2.10;;
11222;SDS011;5668;52.012;8.724;2024-03-02T14:14:28;2.47;;;2.10;;
11222;SDS011;5668;52.012;8.724;2024-03-02T14:16:55;2.30;;;1.90;;
11222;SDS011;5668;52.012;8.724;2024-03-02T14:19:25;2.75;;;2.00;;
11222;SDS011;5668;52.012;8.724;2024-03-02T14:21:53;2.95;;;1.80;;
11222;SDS011;5668;52.012;8.724;2024-03-02T14:24:22;1.77;;;1.63;;
11222;SDS011;5668;52.012;8.724;2024-03-02T14:26:50;1.48;;;1.38;;
11222;SDS011;5668;52.012;8.724;2024-03-02T14:29:18;3.67;;;1.70;;
11222;SDS011;5668;52.012;8.724;2024-03-02T14:31:45;1.75;;;1.60;;
11222;SDS011;5668;52.012;8.724;2024-03-02T14:34:13;1.48;;;1.23;;
11222;SDS011;5668;52.012;8.724;2024-03-02T14:36:40;1.50;;;1.40;;
11222;SDS011;5668;52.012;8.724;2024-03-02T14:39:09;2.85;;;1.70;;
11222;SDS011;5668;52.012;8.724;2024-03-02T14:41:37;2.20;;;1.73;;
11222;SDS011;5668;52.012;8.724;2024-03-02T14:44:05;3.35;;;1.90;;
11222;SDS011;5668;52.012;8.724;2024-03-02T14:46:32;2.75;;;2.13;;
11222;SDS011;5668;52.012;8.724;2024-03-02T14:48:59;2.47;;;2.28;;
11222;SDS011;5668;52.012;8.724;2024-03-02T14:51:27;3.72;;;2.55;;
11222;SDS011;5668;52.012;8.724;2024-03-02T14:53:55;2.85;;;2.10;;
11222;SDS011;5668;52.012;8.724;2024-03-02T14:56:22;3.13;;;2.40;;
11222;SDS011;5668;52.012;8.724;2024-03-02T14:58:50;3.55;;;2.90;;
11222;SDS011;5668;52.012;8.724;2024-03-02T15:01:18;2.67;;;2.45;;
11222;SDS011;5668;52.012;8.724;2024-03-02T15:03:47;3.40;;;2.42;;
11222;SDS011;5668;52.012;8.724;2024-03-02T15:06:15;2.58;;;2.35;;